sensor_id;sensor_type;location;lat;lon;timestamp;P1;durP1;ratioP1;P2;durP2;ratioP2
27957;SDS011;15295;42.658;23.374;2023-11-18T00:01:19;1.15;;;0.90;;
27957;SDS011;15295;42.658;23.374;2023-11-18T00:03:45;0.85;;;0.85;;
27957;SDS011;15295;42.658;23.374;2023-11-18T00:06:10;0.90;;;0.80;;
27957;SDS011;15295;42.658;23.374;2023-11-18T00:08:35;1.13;;;0.90;;
27957;SDS011;15295;42.658;23.374;2023-11-18T00:11:01;1.17;;;1.05;;
27957;SDS011;15295;42.658;23.374;2023-11-18T00:13:26;0.68;;;0.65;;
27957;SDS011;15295;42.658;23.374;2023-11-18T00:15:52;0.77;;;0.73;;
27957;SDS011;15295;42.658;23.374;2023-11-18T00:18:18;1.25;;;0.85;;
27957;SDS011;15295;42.658;23.374;2023-11-18T00:20:44;0.82;;;0.70;;
27957;SDS011;15295;42.658;23.374;2023-11-18T00:25:38;0.73;;;0.70;;
27957;SDS011;15295;42.658;23.374;2023-11-18T00:28:05;3.10;;;1.10;;
27957;SDS011;15295;42.658;23.374;2023-11-18T00:30:34;1.17;;;0.90;;
27957;SDS011;15295;42.658;23.374;2023-11-18T00:33:07;2.38;;;0.70;;
27957;SDS011;15295;42.658;23.374;2023-11-18T00:35:33;0.88;;;0.75;;
27957;SDS011;15295;42.658;23.374;2023-11-18T00:37:59;0.80;;;0.70;;
27957;SDS011;15295;42.658;23.374;2023-11-18T00:40:25;1.10;;;0.60;;
27957;SDS011;15295;42.658;23.374;2023-11-18T00:42:57;1.15;;;0.70;;
27957;SDS011;15295;42.658;23.374;2023-11-18T00:45:22;0.90;;;0.70;;
27957;SDS011;15295;42.658;23.374;2023-11-18T00:47:49;1.27;;;0.70;;
27957;SDS011;15295;42.658;23.374;2023-11-18T00:50:15;0.70;;;0.60;;
27957;SDS011;15295;42.658;23.374;2023-11-18T00:52:40;1.05;;;0.73;;
27957;SDS011;15295;42.658;23.374;2023-11-18T00:55:07;2.00;;;1.10;;
27957;SDS011;15295;42.658;23.374;2023-11-18T00:57:34;1.38;;;1.10;;
27957;SDS011;15295;42.658;23.374;2023-11-18T01:00:00;1.30;;;1.00;;
27957;SDS011;15295;42.658;23.374;2023-11-18T01:02:31;1.63;;;1.30;;
27957;SDS011;15295;42.658;23.374;2023-11-18T01:04:57;1.60;;;1.20;;
27957;SDS011;15295;42.658;23.374;2023-11-18T01:07:24;3.58;;;1.70;;
27957;SDS011;15295;42.658;23.374;2023-11-18T01:09:49;1.65;;;1.23;;
27957;SDS011;15295;42.658;23.374;2023-11-18T01:12:17;1.63;;;1.27;;
27957;SDS011;15295;42.658;23.374;2023-11-18T01:14:42;1.35;;;1.00;;
27957;SDS011;15295;42.658;23.374;2023-11-18T01:17:08;1.50;;;1.27;;
27957;SDS011;15295;42.658;23.374;2023-11-18T01:19:36;1.45;;;1.33;;
27957;SDS011;15295;42.658;23.374;2023-11-18T01:22:03;1.20;;;1.10;;
27957;SDS011;15295;42.658;23.374;2023-11-18T01:24:31;2.10;;;1.33;;
27957;SDS011;15295;42.658;23.374;2023-11-18T01:26:57;2.15;;;1.67;;
27957;SDS011;15295;42.658;23.374;2023-11-18T01:29:24;2.88;;;1.42;;
27957;SDS011;15295;42.658;23.374;2023-11-18T01:31:49;2.30;;;1.50;;
27957;SDS011;15295;42.658;23.374;2023-11-18T01:34:15;1.75;;;1.33;;
27957;SDS011;15295;42.658;23.374;2023-11-18T01:36:42;1.38;;;1.10;;
27957;SDS011;15295;42.658;23.374;2023-11-18T01:39:08;1.90;;;1.70;;
27957;SDS011;15295;42.658;23.374;2023-11-18T01:41:34;2.05;;;1.83;;
27957;SDS011;15295;42.658;23.374;2023-11-18T01:44:00;1.50;;;1.40;;
27957;SDS011;15295;42.658;23.374;2023-11-18T01:46:26;1.98;;;1.75;;
27957;SDS011;15295;42.658;23.374;2023-11-18T01:48:54;2.08;;;1.88;;
27957;SDS011;15295;42.658;23.374;2023-11-18T01:51:20;1.90;;;1.70;;
27957;SDS011;15295;42.658;23.374;2023-11-18T01:53:50;1.65;;;1.48;;
27957;SDS011;15295;42.658;23.374;2023-11-18T01:56:16;1.45;;;1.30;;
27957;SDS011;15295;42.658;23.374;2023-11-18T01:58:41;1.73;;;1.48;;
27957;SDS011;15295;42.658;23.374;2023-11-18T02:01:07;1.73;;;1.60;;
27957;SDS011;15295;42.658;23.374;2023-11-18T02:03:35;1.77;;;1.48;;
27957;SDS011;15295;42.658;23.374;2023-11-18T02:06:01;1.52;;;1.42;;
27957;SDS011;15295;42.658;23.374;2023-11-18T02:08:30;3.75;;;1.70;;
27957;SDS011;15295;42.658;23.374;2023-11-18T02:11:10;2.05;;;1.73;;
27957;SDS011;15295;42.658;23.374;2023-11-18T02:13:42;1.70;;;1.45;;
27957;SDS011;15295;42.658;23.374;2023-11-18T02:16:12;2.10;;;1.33;;
27957;SDS011;15295;42.658;23.374;2023-11-18T02:18:41;1.95;;;1.75;;
27957;SDS011;15295;42.658;23.374;2023-11-18T02:21:08;1.90;;;1.70;;
27957;SDS011;15295;42.658;23.374;2023-11-18T02:23:37;2.70;;;2.00;;
27957;SDS011;15295;42.658;23.374;2023-11-18T02:26:03;1.70;;;1.60;;
27957;SDS011;15295;42.658;23.374;2023-11-18T02:28:30;1.83;;;1.55;;
27957;SDS011;15295;42.658;23.374;2023-11-18T02:31:00;2.20;;;2.00;;
27957;SDS011;15295;42.658;23.374;2023-11-18T02:33:35;2.50;;;1.88;;
27957;SDS011;15295;42.658;23.374;2023-11-18T02:36:31;2.00;;;1.65;;
27957;SDS011;15295;42.658;23.374;2023-11-18T02:39:06;2.72;;;1.90;;
27957;SDS011;15295;42.658;23.374;2023-11-18T02:44:04;3.63;;;2.83;;
27957;SDS011;15295;42.658;23.374;2023-11-18T02:46:36;2.33;;;1.88;;
27957;SDS011;15295;42.658;23.374;2023-11-18T02:49:03;2.85;;;2.25;;
27957;SDS011;15295;42.658;23.374;2023-11-18T02:51:29;2.25;;;2.05;;
27957;SDS011;15295;42.658;23.374;2023-11-18T02:54:05;2.88;;;2.38;;
27957;SDS011;15295;42.658;23.374;2023-11-18T02:56:31;2.85;;;2.20;;
27957;SDS011;15295;42.658;23.374;2023-11-18T02:58:57;2.92;;;2.30;;
27957;SDS011;15295;42.658;23.374;2023-11-18T03:01:23;2.65;;;2.22;;
27957;SDS011;15295;42.658;23.374;2023-11-18T03:03:51;4.57;;;2.30;;
27957;SDS011;15295;42.658;23.374;2023-11-18T03:06:16;2.78;;;2.50;;
27957;SDS011;15295;42.658;23.374;2023-11-18T03:08:42;5.78;;;2.58;;
27957;SDS011;15295;42.658;23.374;2023-11-18T03:11:07;5.43;;;3.55;;
27957;SDS011;15295;42.658;23.374;2023-11-18T03:13:34;3.17;;;2.53;;
27957;SDS011;15295;42.658;23.374;2023-11-18T03:16:05;4.38;;;2.92;;
27957;SDS011;15295;42.658;23.374;2023-11-18T03:18:32;3.25;;;2.53;;
27957;SDS011;15295;42.658;23.374;2023-11-18T03:20:57;4.22;;;3.30;;
27957;SDS011;15295;42.658;23.374;2023-11-18T03:23:23;3.33;;;2.75;;
27957;SDS011;15295;42.658;23.374;2023-11-18T03:25:50;3.25;;;2.80;;
27957;SDS011;15295;42.658;23.374;2023-11-18T03:28:16;4.45;;;2.90;;
27957;SDS011;15295;42.658;23.374;2023-11-18T03:30:42;4.03;;;2.60;;
27957;SDS011;15295;42.658;23.374;2023-11-18T03:33:07;3.75;;;3.03;;
27957;SDS011;15295;42.658;23.374;2023-11-18T03:35:36;3.05;;;2.70;;
27957;SDS011;15295;42.658;23.374;2023-11-18T03:38:02;4.05;;;3.10;;
27957;SDS011;15295;42.658;23.374;2023-11-18T03:40:28;4.25;;;2.53;;
27957;SDS011;15295;42.658;23.374;2023-11-18T03:42:54;4.22;;;2.83;;
27957;SDS011;15295;42.658;23.374;2023-11-18T03:45:19;4.22;;;2.63;;
27957;SDS011;15295;42.658;23.374;2023-11-18T03:47:46;2.58;;;2.38;;
27957;SDS011;15295;42.658;23.374;2023-11-18T03:50:12;3.53;;;2.83;;
27957;SDS011;15295;42.658;23.374;2023-11-18T03:52:38;3.45;;;2.90;;
27957;SDS011;15295;42.658;23.374;2023-11-18T03:55:05;3.85;;;2.78;;
27957;SDS011;15295;42.658;23.374;2023-11-18T04:00:01;3.55;;;2.83;;
27957;SDS011;15295;42.658;23.374;2023-11-18T04:02:31;5.15;;;2.65;;
27957;SDS011;15295;42.658;23.374;2023-11-18T04:07:25;3.85;;;2.60;;
27957;SDS011;15295;42.658;23.374;2023-11-18T04:09:50;3.55;;;2.80;;
27957;SDS011;15295;42.658;23.374;2023-11-18T04:12:16;4.18;;;3.22;;
27957;SDS011;15295;42.658;23.374;2023-11-18T04:14:51;3.00;;;2.67;;
27957;SDS011;15295;42.658;23.374;2023-11-18T04:17:18;3.78;;;2.88;;
27957;SDS011;15295;42.658;23.374;2023-11-18T04:19:43;3.90;;;2.85;;
27957;SDS011;15295;42.658;23.374;2023-11-18T04:22:09;5.00;;;3.03;;
27957;SDS011;15295;42.658;23.374;2023-11-18T04:24:34;3.63;;;3.05;;
27957;SDS011;15295;42.658;23.374;2023-11-18T04:27:00;8.32;;;3.60;;
27957;SDS011;15295;42.658;23.374;2023-11-18T04:29:27;5.35;;;3.13;;
27957;SDS011;15295;42.658;23.374;2023-11-18T04:31:52;5.72;;;3.00;;
27957;SDS011;15295;42.658;23.374;2023-11-18T04:34:18;3.28;;;2.70;;
27957;SDS011;15295;42.658;23.374;2023-11-18T04:36:45;3.60;;;3.00;;
27957;SDS011;15295;42.658;23.374;2023-11-18T04:39:10;3.75;;;2.90;;
27957;SDS011;15295;42.658;23.374;2023-11-18T04:41:37;5.22;;;2.80;;
27957;SDS011;15295;42.658;23.374;2023-11-18T04:44:03;3.70;;;2.63;;
27957;SDS011;15295;42.658;23.374;2023-11-18T04:46:28;3.83;;;2.80;;
27957;SDS011;15295;42.658;23.374;2023-11-18T04:48:54;4.07;;;2.83;;
27957;SDS011;15295;42.658;23.374;2023-11-18T04:51:20;7.35;;;3.17;;
27957;SDS011;15295;42.658;23.374;2023-11-18T04:53:47;2.88;;;2.53;;
27957;SDS011;15295;42.658;23.374;2023-11-18T05:01:19;5.45;;;2.70;;
27957;SDS011;15295;42.658;23.374;2023-11-18T05:03:51;4.00;;;2.95;;
27957;SDS011;15295;42.658;23.374;2023-11-18T05:06:22;3.40;;;2.85;;
27957;SDS011;15295;42.658;23.374;2023-11-18T05:08:48;3.65;;;2.85;;
27957;SDS011;15295;42.658;23.374;2023-11-18T05:11:13;2.85;;;2.45;;
27957;SDS011;15295;42.658;23.374;2023-11-18T05:13:39;2.88;;;2.40;;
27957;SDS011;15295;42.658;23.374;2023-11-18T05:16:09;3.20;;;2.40;;
27957;SDS011;15295;42.658;23.374;2023-11-18T05:18:37;3.55;;;2.50;;
27957;SDS011;15295;42.658;23.374;2023-11-18T05:21:04;3.35;;;2.50;;
27957;SDS011;15295;42.658;23.374;2023-11-18T05:23:30;3.33;;;2.53;;
27957;SDS011;15295;42.658;23.374;2023-11-18T05:26:12;3.08;;;2.25;;
27957;SDS011;15295;42.658;23.374;2023-11-18T05:28:37;3.47;;;2.30;;
27957;SDS011;15295;42.658;23.374;2023-11-18T05:31:03;2.58;;;2.20;;
27957;SDS011;15295;42.658;23.374;2023-11-18T05:33:30;2.17;;;1.80;;
27957;SDS011;15295;42.658;23.374;2023-11-18T05:35:56;3.00;;;2.20;;
27957;SDS011;15295;42.658;23.374;2023-11-18T05:38:22;4.03;;;2.15;;
27957;SDS011;15295;42.658;23.374;2023-11-18T05:40:51;3.83;;;2.33;;
27957;SDS011;15295;42.658;23.374;2023-11-18T05:43:26;2.30;;;1.80;;
27957;SDS011;15295;42.658;23.374;2023-11-18T05:45:55;7.25;;;1.80;;
27957;SDS011;15295;42.658;23.374;2023-11-18T05:48:43;2.45;;;1.92;;
27957;SDS011;15295;42.658;23.374;2023-11-18T05:51:09;2.35;;;1.98;;
27957;SDS011;15295;42.658;23.374;2023-11-18T05:53:39;3.40;;;1.77;;
27957;SDS011;15295;42.658;23.374;2023-11-18T05:56:11;2.60;;;1.60;;
27957;SDS011;15295;42.658;23.374;2023-11-18T05:58:37;1.83;;;1.50;;
27957;SDS011;15295;42.658;23.374;2023-11-18T06:01:06;6.32;;;1.80;;
27957;SDS011;15295;42.658;23.374;2023-11-18T06:03:36;2.63;;;1.70;;
27957;SDS011;15295;42.658;23.374;2023-11-18T06:06:08;1.83;;;1.40;;
27957;SDS011;15295;42.658;23.374;2023-11-18T06:08:35;3.20;;;1.50;;
27957;SDS011;15295;42.658;23.374;2023-11-18T06:11:06;2.17;;;1.40;;
27957;SDS011;15295;42.658;23.374;2023-11-18T06:13:43;1.33;;;0.95;;
27957;SDS011;15295;42.658;23.374;2023-11-18T06:16:09;2.65;;;1.30;;
27957;SDS011;15295;42.658;23.374;2023-11-18T06:18:39;3.72;;;1.48;;
27957;SDS011;15295;42.658;23.374;2023-11-18T06:21:12;1.95;;;0.93;;
27957;SDS011;15295;42.658;23.374;2023-11-18T06:23:43;2.17;;;1.02;;
27957;SDS011;15295;42.658;23.374;2023-11-18T06:26:12;1.75;;;1.00;;
27957;SDS011;15295;42.658;23.374;2023-11-18T06:28:40;1.77;;;1.20;;
27957;SDS011;15295;42.658;23.374;2023-11-18T06:31:07;3.35;;;0.90;;
27957;SDS011;15295;42.658;23.374;2023-11-18T06:33:43;3.70;;;1.10;;
27957;SDS011;15295;42.658;23.374;2023-11-18T06:36:09;1.67;;;1.20;;
27957;SDS011;15295;42.658;23.374;2023-11-18T06:38:38;1.40;;;1.00;;
27957;SDS011;15295;42.658;23.374;2023-11-18T06:41:03;1.80;;;1.20;;
27957;SDS011;15295;42.658;23.374;2023-11-18T06:43:30;10.43;;;1.65;;
27957;SDS011;15295;42.658;23.374;2023-11-18T06:46:11;2.47;;;1.38;;
27957;SDS011;15295;42.658;23.374;2023-11-18T06:48:44;3.47;;;1.33;;
27957;SDS011;15295;42.658;23.374;2023-11-18T06:51:10;1.27;;;0.90;;
27957;SDS011;15295;42.658;23.374;2023-11-18T06:53:36;2.35;;;0.98;;
27957;SDS011;15295;42.658;23.374;2023-11-18T06:56:02;1.20;;;0.90;;
27957;SDS011;15295;42.658;23.374;2023-11-18T06:58:36;2.47;;;0.80;;
27957;SDS011;15295;42.658;23.374;2023-11-18T07:01:04;1.83;;;1.00;;
27957;SDS011;15295;42.658;23.374;2023-11-18T07:03:31;1.77;;;0.90;;
27957;SDS011;15295;42.658;23.374;2023-11-18T07:05:57;1.08;;;0.70;;
27957;SDS011;15295;42.658;23.374;2023-11-18T07:08:22;1.60;;;0.90;;
27957;SDS011;15295;42.658;23.374;2023-11-18T07:10:49;1.27;;;1.00;;
27957;SDS011;15295;42.658;23.374;2023-11-18T07:13:15;1.55;;;1.02;;
27957;SDS011;15295;42.658;23.374;2023-11-18T07:15:41;25.35;;;5.40;;
27957;SDS011;15295;42.658;23.374;2023-11-18T07:18:08;2.47;;;1.02;;
27957;SDS011;15295;42.658;23.374;2023-11-18T07:20:34;1.55;;;1.00;;
27957;SDS011;15295;42.658;23.374;2023-11-18T07:25:35;1.35;;;0.82;;
27957;SDS011;15295;42.658;23.374;2023-11-18T07:28:11;1.20;;;0.88;;
27957;SDS011;15295;42.658;23.374;2023-11-18T07:30:47;1.63;;;0.88;;
27957;SDS011;15295;42.658;23.374;2023-11-18T07:36:37;2.83;;;1.20;;
27957;SDS011;15295;42.658;23.374;2023-11-18T07:39:21;1.33;;;0.85;;
27957;SDS011;15295;42.658;23.374;2023-11-18T07:42:20;1.27;;;0.93;;
27957;SDS011;15295;42.658;23.374;2023-11-18T07:44:49;1.20;;;0.70;;
27957;SDS011;15295;42.658;23.374;2023-11-18T07:47:15;0.77;;;0.60;;
27957;SDS011;15295;42.658;23.374;2023-11-18T07:49:42;1.58;;;0.73;;
27957;SDS011;15295;42.658;23.374;2023-11-18T07:52:10;1.33;;;0.88;;
27957;SDS011;15295;42.658;23.374;2023-11-18T07:54:56;1.77;;;0.90;;
27957;SDS011;15295;42.658;23.374;2023-11-18T07:57:46;5.90;;;2.05;;
27957;SDS011;15295;42.658;23.374;2023-11-18T08:00:16;1.63;;;0.90;;
27957;SDS011;15295;42.658;23.374;2023-11-18T08:02:49;8.70;;;2.40;;
27957;SDS011;15295;42.658;23.374;2023-11-18T08:05:16;4.60;;;1.92;;
27957;SDS011;15295;42.658;23.374;2023-11-18T08:07:44;5.78;;;2.05;;
27957;SDS011;15295;42.658;23.374;2023-11-18T08:10:10;12.93;;;7.03;;
27957;SDS011;15295;42.658;23.374;2023-11-18T08:12:38;3.45;;;1.98;;
27957;SDS011;15295;42.658;23.374;2023-11-18T08:15:08;2.35;;;1.27;;
27957;SDS011;15295;42.658;23.374;2023-11-18T08:17:34;9.25;;;4.60;;
27957;SDS011;15295;42.658;23.374;2023-11-18T08:20:00;14.32;;;6.35;;
27957;SDS011;15295;42.658;23.374;2023-11-18T08:22:26;45.53;;;21.33;;
27957;SDS011;15295;42.658;23.374;2023-11-18T08:25:11;27.20;;;12.57;;
27957;SDS011;15295;42.658;23.374;2023-11-18T08:27:38;18.20;;;8.57;;
27957;SDS011;15295;42.658;23.374;2023-11-18T08:30:08;9.95;;;4.50;;
27957;SDS011;15295;42.658;23.374;2023-11-18T08:32:39;6.15;;;2.72;;
27957;SDS011;15295;42.658;23.374;2023-11-18T08:35:09;7.03;;;3.55;;
27957;SDS011;15295;42.658;23.374;2023-11-18T08:37:35;1.90;;;1.30;;
27957;SDS011;15295;42.658;23.374;2023-11-18T08:40:05;6.28;;;3.30;;
27957;SDS011;15295;42.658;23.374;2023-11-18T08:46:09;5.05;;;2.05;;
27957;SDS011;15295;42.658;23.374;2023-11-18T08:48:35;3.55;;;2.25;;
27957;SDS011;15295;42.658;23.374;2023-11-18T08:51:28;7.13;;;2.53;;
27957;SDS011;15295;42.658;23.374;2023-11-18T08:54:20;5.05;;;2.78;;
27957;SDS011;15295;42.658;23.374;2023-11-18T09:17:46;4.13;;;2.42;;
27957;SDS011;15295;42.658;23.374;2023-11-18T09:20:47;5.80;;;1.70;;
27957;SDS011;15295;42.658;23.374;2023-11-18T09:23:13;5.40;;;1.63;;
27957;SDS011;15295;42.658;23.374;2023-11-18T09:25:41;3.75;;;1.55;;
27957;SDS011;15295;42.658;23.374;2023-11-18T09:28:09;2.90;;;1.33;;
27957;SDS011;15295;42.658;23.374;2023-11-18T10:13:47;2.50;;;1.80;;
27957;SDS011;15295;42.658;23.374;2023-11-18T10:16:13;5.13;;;2.70;;
27957;SDS011;15295;42.658;23.374;2023-11-18T10:18:39;2.15;;;1.00;;
27957;SDS011;15295;42.658;23.374;2023-11-18T10:21:15;1.75;;;1.10;;
27957;SDS011;15295;42.658;23.374;2023-11-18T10:23:59;2.63;;;1.42;;
27957;SDS011;15295;42.658;23.374;2023-11-18T10:26:26;2.97;;;1.60;;
27957;SDS011;15295;42.658;23.374;2023-11-18T10:28:52;3.13;;;1.40;;
27957;SDS011;15295;42.658;23.374;2023-11-18T10:31:20;4.25;;;1.63;;
27957;SDS011;15295;42.658;23.374;2023-11-18T10:33:45;2.53;;;1.38;;
27957;SDS011;15295;42.658;23.374;2023-11-18T10:36:21;4.82;;;1.70;;
27957;SDS011;15295;42.658;23.374;2023-11-18T10:38:49;3.60;;;1.92;;
27957;SDS011;15295;42.658;23.374;2023-11-18T10:41:23;1.35;;;1.13;;
27957;SDS011;15295;42.658;23.374;2023-11-18T10:43:49;3.28;;;1.38;;
27957;SDS011;15295;42.658;23.374;2023-11-18T10:46:15;2.97;;;1.90;;
27957;SDS011;15295;42.658;23.374;2023-11-18T10:48:47;2.10;;;1.17;;
27957;SDS011;15295;42.658;23.374;2023-11-18T10:51:14;2.15;;;1.30;;
27957;SDS011;15295;42.658;23.374;2023-11-18T10:53:41;4.47;;;1.55;;
27957;SDS011;15295;42.658;23.374;2023-11-18T10:56:23;3.40;;;2.15;;
27957;SDS011;15295;42.658;23.374;2023-11-18T10:58:56;2.25;;;1.23;;
27957;SDS011;15295;42.658;23.374;2023-11-18T11:01:35;4.47;;;1.70;;
27957;SDS011;15295;42.658;23.374;2023-11-18T11:04:07;2.83;;;1.45;;
27957;SDS011;15295;42.658;23.374;2023-11-18T11:06:35;4.13;;;1.65;;
27957;SDS011;15295;42.658;23.374;2023-11-18T11:09:07;2.47;;;1.50;;
27957;SDS011;15295;42.658;23.374;2023-11-18T11:11:45;3.72;;;2.03;;
27957;SDS011;15295;42.658;23.374;2023-11-18T11:14:15;5.25;;;3.05;;
27957;SDS011;15295;42.658;23.374;2023-11-18T11:16:44;1.83;;;1.38;;
27957;SDS011;15295;42.658;23.374;2023-11-18T11:19:25;1.98;;;1.40;;
27957;SDS011;15295;42.658;23.374;2023-11-18T11:22:12;5.60;;;2.95;;
27957;SDS011;15295;42.658;23.374;2023-11-18T11:24:54;3.00;;;1.80;;
27957;SDS011;15295;42.658;23.374;2023-11-18T11:30:45;3.78;;;2.20;;
27957;SDS011;15295;42.658;23.374;2023-11-18T11:33:17;1.98;;;1.30;;
27957;SDS011;15295;42.658;23.374;2023-11-18T11:35:54;1.70;;;0.90;;
27957;SDS011;15295;42.658;23.374;2023-11-18T11:38:25;3.05;;;1.40;;
27957;SDS011;15295;42.658;23.374;2023-11-18T11:40:54;1.63;;;1.52;;
27957;SDS011;15295;42.658;23.374;2023-11-18T11:43:21;3.58;;;2.13;;
27957;SDS011;15295;42.658;23.374;2023-11-18T11:45:50;1.52;;;1.05;;
27957;SDS011;15295;42.658;23.374;2023-11-18T11:48:17;2.85;;;1.52;;
27957;SDS011;15295;42.658;23.374;2023-11-18T11:53:50;6.30;;;4.35;;
27957;SDS011;15295;42.658;23.374;2023-11-18T11:56:45;3.30;;;1.75;;
27957;SDS011;15295;42.658;23.374;2023-11-18T11:59:12;2.85;;;1.30;;
27957;SDS011;15295;42.658;23.374;2023-11-18T12:01:41;4.40;;;1.30;;
27957;SDS011;15295;42.658;23.374;2023-11-18T12:04:14;3.03;;;1.60;;
27957;SDS011;15295;42.658;23.374;2023-11-18T12:06:49;2.55;;;1.38;;
27957;SDS011;15295;42.658;23.374;2023-11-18T12:09:21;2.20;;;1.70;;
27957;SDS011;15295;42.658;23.374;2023-11-18T12:11:48;3.00;;;1.60;;
27957;SDS011;15295;42.658;23.374;2023-11-18T12:14:15;3.85;;;2.13;;
27957;SDS011;15295;42.658;23.374;2023-11-18T12:17:03;3.47;;;2.03;;
27957;SDS011;15295;42.658;23.374;2023-11-18T12:19:53;3.30;;;1.80;;
27957;SDS011;15295;42.658;23.374;2023-11-18T12:22:27;2.22;;;1.55;;
27957;SDS011;15295;42.658;23.374;2023-11-18T12:36:09;4.20;;;2.17;;
27957;SDS011;15295;42.658;23.374;2023-11-18T12:46:59;2.85;;;1.90;;
27957;SDS011;15295;42.658;23.374;2023-11-18T12:49:46;2.33;;;1.45;;
27957;SDS011;15295;42.658;23.374;2023-11-18T12:52:19;4.05;;;1.80;;
27957;SDS011;15295;42.658;23.374;2023-11-18T12:54:49;2.03;;;1.38;;
27957;SDS011;15295;42.658;23.374;2023-11-18T12:57:26;4.75;;;1.88;;
27957;SDS011;15295;42.658;23.374;2023-11-18T12:59:56;3.17;;;1.60;;
27957;SDS011;15295;42.658;23.374;2023-11-18T13:02:22;6.18;;;1.70;;
27957;SDS011;15295;42.658;23.374;2023-11-18T13:04:48;3.80;;;2.38;;
27957;SDS011;15295;42.658;23.374;2023-11-18T13:07:15;3.30;;;1.83;;
27957;SDS011;15295;42.658;23.374;2023-11-18T13:09:42;2.97;;;2.10;;
27957;SDS011;15295;42.658;23.374;2023-11-18T13:12:10;4.75;;;2.08;;
27957;SDS011;15295;42.658;23.374;2023-11-18T13:14:39;3.20;;;2.25;;
27957;SDS011;15295;42.658;23.374;2023-11-18T13:17:10;3.05;;;2.05;;
27957;SDS011;15295;42.658;23.374;2023-11-18T13:19:39;9.68;;;2.47;;
27957;SDS011;15295;42.658;23.374;2023-11-18T13:22:07;5.45;;;2.70;;
27957;SDS011;15295;42.658;23.374;2023-11-18T13:24:36;5.10;;;2.67;;
27957;SDS011;15295;42.658;23.374;2023-11-18T13:27:06;3.50;;;2.53;;
27957;SDS011;15295;42.658;23.374;2023-11-18T13:29:37;2.70;;;2.15;;
27957;SDS011;15295;42.658;23.374;2023-11-18T13:32:06;3.40;;;1.70;;
27957;SDS011;15295;42.658;23.374;2023-11-18T13:34:48;4.72;;;2.90;;
27957;SDS011;15295;42.658;23.374;2023-11-18T14:05:40;5.65;;;2.90;;
27957;SDS011;15295;42.658;23.374;2023-11-18T14:08:10;3.75;;;2.83;;
27957;SDS011;15295;42.658;23.374;2023-11-18T14:10:39;4.90;;;3.10;;
27957;SDS011;15295;42.658;23.374;2023-11-18T14:13:08;3.25;;;2.50;;
27957;SDS011;15295;42.658;23.374;2023-11-18T14:15:42;3.63;;;2.88;;
27957;SDS011;15295;42.658;23.374;2023-11-18T14:18:10;4.80;;;3.10;;
27957;SDS011;15295;42.658;23.374;2023-11-18T14:20:35;5.68;;;3.67;;
27957;SDS011;15295;42.658;23.374;2023-11-18T14:23:02;15.43;;;6.65;;
27957;SDS011;15295;42.658;23.374;2023-11-18T14:25:33;4.35;;;2.75;;
27957;SDS011;15295;42.658;23.374;2023-11-18T14:30:37;4.53;;;3.22;;
27957;SDS011;15295;42.658;23.374;2023-11-18T14:33:03;4.35;;;3.13;;
27957;SDS011;15295;42.658;23.374;2023-11-18T14:35:32;5.65;;;3.58;;
27957;SDS011;15295;42.658;23.374;2023-11-18T14:37:58;8.30;;;3.90;;
27957;SDS011;15295;42.658;23.374;2023-11-18T14:40:26;17.85;;;10.50;;
27957;SDS011;15295;42.658;23.374;2023-11-18T14:42:51;7.55;;;5.40;;
27957;SDS011;15295;42.658;23.374;2023-11-18T14:45:17;7.13;;;4.45;;
27957;SDS011;15295;42.658;23.374;2023-11-18T14:47:43;9.68;;;4.53;;
27957;SDS011;15295;42.658;23.374;2023-11-18T14:50:13;10.27;;;5.95;;
27957;SDS011;15295;42.658;23.374;2023-11-18T14:52:48;6.82;;;4.38;;
27957;SDS011;15295;42.658;23.374;2023-11-18T14:55:24;12.50;;;6.80;;
27957;SDS011;15295;42.658;23.374;2023-11-18T14:57:53;8.45;;;4.50;;
27957;SDS011;15295;42.658;23.374;2023-11-18T15:00:19;4.15;;;3.05;;
27957;SDS011;15295;42.658;23.374;2023-11-18T15:02:47;4.40;;;3.08;;
27957;SDS011;15295;42.658;23.374;2023-11-18T15:05:16;4.68;;;3.50;;
27957;SDS011;15295;42.658;23.374;2023-11-18T15:10:19;7.70;;;4.10;;
27957;SDS011;15295;42.658;23.374;2023-11-18T15:15:23;7.80;;;3.40;;
27957;SDS011;15295;42.658;23.374;2023-11-18T15:18:01;8.30;;;5.38;;
27957;SDS011;15295;42.658;23.374;2023-11-18T15:20:38;7.35;;;2.97;;
27957;SDS011;15295;42.658;23.374;2023-11-18T15:23:10;7.68;;;3.58;;
27957;SDS011;15295;42.658;23.374;2023-11-18T15:25:36;7.90;;;3.75;;
27957;SDS011;15295;42.658;23.374;2023-11-18T15:28:02;4.95;;;3.08;;
27957;SDS011;15295;42.658;23.374;2023-11-18T15:30:29;5.90;;;3.67;;
27957;SDS011;15295;42.658;23.374;2023-11-18T15:32:59;6.28;;;3.50;;
27957;SDS011;15295;42.658;23.374;2023-11-18T15:35:26;5.15;;;3.95;;
27957;SDS011;15295;42.658;23.374;2023-11-18T15:37:51;4.30;;;3.30;;
27957;SDS011;15295;42.658;23.374;2023-11-18T15:40:17;7.10;;;4.28;;
27957;SDS011;15295;42.658;23.374;2023-11-18T15:42:52;5.85;;;3.65;;
27957;SDS011;15295;42.658;23.374;2023-11-18T15:45:19;5.15;;;3.53;;
27957;SDS011;15295;42.658;23.374;2023-11-18T15:47:46;4.13;;;2.95;;
27957;SDS011;15295;42.658;23.374;2023-11-18T15:50:13;5.75;;;3.53;;
27957;SDS011;15295;42.658;23.374;2023-11-18T15:53:01;12.15;;;4.18;;
27957;SDS011;15295;42.658;23.374;2023-11-18T15:55:27;4.80;;;3.53;;
27957;SDS011;15295;42.658;23.374;2023-11-18T15:57:56;4.72;;;3.00;;
27957;SDS011;15295;42.658;23.374;2023-11-18T16:00:22;7.47;;;4.45;;
27957;SDS011;15295;42.658;23.374;2023-11-18T16:02:56;5.97;;;3.67;;
27957;SDS011;15295;42.658;23.374;2023-11-18T16:05:27;6.13;;;3.67;;
27957;SDS011;15295;42.658;23.374;2023-11-18T16:07:53;6.60;;;4.55;;
27957;SDS011;15295;42.658;23.374;2023-11-18T16:10:20;9.48;;;4.35;;
27957;SDS011;15295;42.658;23.374;2023-11-18T16:12:50;8.23;;;4.20;;
27957;SDS011;15295;42.658;23.374;2023-11-18T16:15:20;6.72;;;3.83;;
27957;SDS011;15295;42.658;23.374;2023-11-18T16:18:03;4.70;;;3.33;;
27957;SDS011;15295;42.658;23.374;2023-11-18T16:20:29;4.35;;;3.00;;
27957;SDS011;15295;42.658;23.374;2023-11-18T16:22:59;6.28;;;3.28;;
27957;SDS011;15295;42.658;23.374;2023-11-18T16:25:28;6.20;;;3.28;;
27957;SDS011;15295;42.658;23.374;2023-11-18T16:28:07;6.82;;;4.10;;
27957;SDS011;15295;42.658;23.374;2023-11-18T16:30:34;6.30;;;3.17;;
27957;SDS011;15295;42.658;23.374;2023-11-18T16:33:00;8.85;;;3.55;;
27957;SDS011;15295;42.658;23.374;2023-11-18T16:35:32;8.48;;;3.50;;
27957;SDS011;15295;42.658;23.374;2023-11-18T16:37:57;11.30;;;5.82;;
27957;SDS011;15295;42.658;23.374;2023-11-18T16:40:27;8.10;;;4.00;;
27957;SDS011;15295;42.658;23.374;2023-11-18T16:42:53;7.35;;;3.47;;
27957;SDS011;15295;42.658;23.374;2023-11-18T16:45:37;7.30;;;3.97;;
27957;SDS011;15295;42.658;23.374;2023-11-18T16:48:27;4.15;;;2.85;;
27957;SDS011;15295;42.658;23.374;2023-11-18T16:50:52;6.13;;;3.90;;
27957;SDS011;15295;42.658;23.374;2023-11-18T16:53:20;8.20;;;2.90;;
27957;SDS011;15295;42.658;23.374;2023-11-18T16:55:46;6.82;;;3.92;;
27957;SDS011;15295;42.658;23.374;2023-11-18T16:58:12;5.80;;;3.50;;
27957;SDS011;15295;42.658;23.374;2023-11-18T17:00:39;10.23;;;6.05;;
27957;SDS011;15295;42.658;23.374;2023-11-18T17:03:07;12.63;;;5.15;;
27957;SDS011;15295;42.658;23.374;2023-11-18T17:05:34;12.77;;;5.50;;
27957;SDS011;15295;42.658;23.374;2023-11-18T17:08:00;12.70;;;6.22;;
27957;SDS011;15295;42.658;23.374;2023-11-18T17:10:25;6.25;;;2.90;;
27957;SDS011;15295;42.658;23.374;2023-11-18T17:12:51;4.32;;;2.83;;
27957;SDS011;15295;42.658;23.374;2023-11-18T17:15:29;5.32;;;2.78;;
27957;SDS011;15295;42.658;23.374;2023-11-18T17:17:56;5.80;;;3.35;;